Time;durP1;ratioP1;P1;durP2;ratioP2;P2;SDS_P1;SDS_P2;PMS_P1;PMS_P2;Temp;Humidity;BMP_temperature;BMP_pressure;BME280_temperature;BME280_humidity;BME280_pressure;Samples;Min_cycle;Max_cycle;Signal;HPM_P1;HPM_P2
2024/01/17 00:00:20;;;;;;;19.67;10.90;;;-2.10;99.90;;;;;;5043816;28;20224;-61
2024/01/17 00:02:49;;;;;;;16.27;10.70;;;-2.10;99.90;;;;;;5043414;28;20229;-60
2024/01/17 00:05:19;;;;;;;17.80;10.30;;;-2.10;99.90;;;;;;5039385;28;20216;-61
2024/01/17 00:07:47;;;;;;;18.87;10.57;;;-2.10;99.90;;;;;;5044522;28;20659;-61
2024/01/17 00:10:16;;;;;;;17.83;10.93;;;-2.10;99.90;;;;;;5044134;28;20734;-61
2024/01/17 00:12:44;;;;;;;21.33;10.87;;;-2.10;99.90;;;;;;5045200;28;20231;-61
2024/01/17 00:15:13;;;;;;;24.87;11.33;;;-2.10;99.90;;;;;;5041829;28;20229;-61
2024/01/17 00:17:41;;;;;;;21.60;11.20;;;-2.10;99.90;;;;;;5042612;28;20224;-61
2024/01/17 00:20:10;;;;;;;19.97;11.37;;;-2.10;99.90;;;;;;5043027;28;20193;-61
2024/01/17 00:22:39;;;;;;;22.03;11.73;;;-2.10;99.90;;;;;;5039402;28;20205;-61
2024/01/17 00:25:09;;;;;;;22.10;10.93;;;-2.10;99.90;;;;;;5042032;28;20822;-61
2024/01/17 00:27:38;;;;;;;16.17;10.37;;;-2.20;99.90;;;;;;5045682;28;20216;-61
2024/01/17 00:30:07;;;;;;;23.20;11.70;;;-2.20;99.90;;;;;;5040514;28;20234;-61
2024/01/17 00:32:36;;;;;;;17.83;10.83;;;-2.20;99.90;;;;;;5044737;28;20232;-61
2024/01/17 00:35:05;;;;;;;22.70;10.67;;;-2.20;99.90;;;;;;5042300;28;20231;-61
2024/01/17 00:37:33;;;;;;;21.07;11.27;;;-2.20;99.90;;;;;;5039424;28;20217;-61
2024/01/17 00:40:03;;;;;;;21.30;11.67;;;-2.20;99.90;;;;;;5041961;28;20213;-61
2024/01/17 00:42:31;;;;;;;28.80;12.33;;;-2.10;99.90;;;;;;5043580;28;20223;-61
2024/01/17 00:44:59;;;;;;;25.33;11.93;;;-2.10;99.90;;;;;;5040944;28;20216;-61
2024/01/17 00:47:28;;;;;;;26.50;12.00;;;-2.10;99.90;;;;;;5044468;28;20286;-61
2024/01/17 00:49:56;;;;;;;33.63;12.93;;;-2.10;99.90;;;;;;5043930;28;20217;-61
2024/01/17 00:52:25;;;;;;;36.10;13.37;;;-2.10;99.90;;;;;;5047139;28;20217;-60
2024/01/17 00:54:53;;;;;;;33.53;13.20;;;-2.10;99.90;;;;;;5044094;28;20256;-61
2024/01/17 00:57:23;;;;;;;34.10;12.87;;;-2.10;99.90;;;;;;5046934;28;20224;-61
2024/01/17 00:59:51;;;;;;;37.17;13.53;;;-2.00;99.90;;;;;;5048408;28;20232;-60
2024/01/17 01:25:26;;;;;;;29.77;12.90;;;-2.20;99.90;;;;;;5030986;28;20231;-61
2024/01/17 01:27:54;;;;;;;33.57;12.87;;;-2.20;99.90;;;;;;5047732;28;20240;-60
2024/01/17 01:30:22;;;;;;;25.03;11.93;;;-2.20;99.90;;;;;;5044065;28;20703;-60
2024/01/17 01:32:50;;;;;;;31.87;12.90;;;-2.20;99.90;;;;;;5049226;28;20231;-60
2024/01/17 01:35:19;;;;;;;35.57;13.47;;;-2.20;99.90;;;;;;5045708;28;20197;-60
2024/01/17 01:37:47;;;;;;;32.87;12.90;;;-2.30;99.90;;;;;;5043899;28;20209;-60
2024/01/17 01:40:15;;;;;;;35.10;12.57;;;-2.20;99.90;;;;;;5048932;28;20212;-61
2024/01/17 01:42:45;;;;;;;27.97;12.00;;;-2.20;99.90;;;;;;5044083;28;20567;-61
2024/01/17 01:45:13;;;;;;;30.90;11.50;;;-2.20;99.90;;;;;;5046945;28;20299;-61
2024/01/17 01:47:42;;;;;;;27.57;11.33;;;-2.20;99.90;;;;;;5056876;28;20229;-61
2024/01/17 01:50:12;;;;;;;26.93;11.43;;;-2.10;99.90;;;;;;5045816;28;20655;-60
2024/01/17 01:52:43;;;;;;;31.30;11.47;;;-2.20;99.90;;;;;;5042153;28;20204;-61
2024/01/17 01:55:12;;;;;;;32.53;12.23;;;-2.20;99.90;;;;;;5043695;28;20217;-60
2024/01/17 01:57:46;;;;;;;29.40;11.17;;;-2.20;99.90;;;;;;5044422;28;20819;-60
2024/01/17 02:00:18;;;;;;;27.47;11.43;;;-2.20;99.90;;;;;;5042348;28;20213;-60
2024/01/17 02:02:47;;;;;;;30.13;11.07;;;-2.20;99.90;;;;;;5042555;28;20687;-61
2024/01/17 02:05:16;;;;;;;26.67;11.20;;;-2.20;99.90;;;;;;5044947;28;20193;-61
2024/01/17 02:07:45;;;;;;;22.63;10.73;;;-2.30;99.90;;;;;;5047088;28;20648;-60
2024/01/17 02:10:14;;;;;;;22.23;10.03;;;-2.30;99.90;;;;;;5046422;28;20590;-60
2024/01/17 02:12:44;;;;;;;27.93;10.83;;;-2.30;99.90;;;;;;5043888;28;20541;-61
2024/01/17 02:15:12;;;;;;;22.33;11.10;;;-2.30;99.90;;;;;;5045012;28;20223;-60
2024/01/17 02:17:43;;;;;;;26.77;10.97;;;-2.30;99.90;;;;;;5045397;28;20232;-61
2024/01/17 02:20:12;;;;;;;19.53;9.83;;;-2.30;99.90;;;;;;5041329;28;20652;-60
2024/01/17 02:22:40;;;;;;;28.20;11.43;;;-2.30;99.90;;;;;;5043593;28;20658;-60
2024/01/17 02:25:10;;;;;;;22.87;10.83;;;-2.30;99.90;;;;;;5046111;28;20587;-60
2024/01/17 02:27:38;;;;;;;21.63;11.00;;;-2.30;99.90;;;;;;5042960;28;20227;-60
2024/01/17 02:30:07;;;;;;;21.17;10.23;;;-2.30;99.90;;;;;;5043320;28;20225;-60
2024/01/17 02:32:38;;;;;;;20.97;9.97;;;-2.30;99.90;;;;;;5044587;28;20231;-60
2024/01/17 02:35:07;;;;;;;23.70;10.90;;;-2.30;99.90;;;;;;5044609;28;20194;-60
2024/01/17 02:37:35;;;;;;;23.13;11.03;;;-2.20;99.90;;;;;;5049543;28;20201;-60
2024/01/17 02:40:03;;;;;;;21.33;10.37;;;-2.30;99.90;;;;;;5046527;28;20216;-60
2024/01/17 02:42:33;;;;;;;25.93;10.10;;;-2.30;99.90;;;;;;5045642;28;20212;-60
2024/01/17 02:45:01;;;;;;;24.93;10.90;;;-2.30;99.90;;;;;;5048250;28;20232;-60
2024/01/17 02:47:30;;;;;;;20.27;10.00;;;-2.20;99.90;;;;;;5047915;28;20232;-60
2024/01/17 02:50:00;;;;;;;26.97;11.17;;;-2.30;99.90;;;;;;5044373;28;20248;-60
2024/01/17 02:52:28;;;;;;;24.57;10.43;;;-2.20;99.90;;;;;;5044669;28;20218;-61
2024/01/17 02:54:56;;;;;;;23.70;10.30;;;-2.20;99.90;;;;;;5046095;28;20221;-61
2024/01/17 02:57:24;;;;;;;20.73;10.90;;;-2.20;99.90;;;;;;5046817;28;21324;-60
2024/01/17 02:59:54;;;;;;;24.67;11.20;;;-2.20;99.90;;;;;;5044143;28;20315;-61
2024/01/17 03:02:22;;;;;;;23.90;10.40;;;-2.20;99.90;;;;;;5045166;28;20622;-61
2024/01/17 03:04:51;;;;;;;22.57;10.53;;;-2.30;99.90;;;;;;5041508;28;20254;-60
2024/01/17 03:07:19;;;;;;;28.17;11.40;;;-2.20;99.90;;;;;;5043445;28;20223;-61
2024/01/17 03:09:47;;;;;;;25.97;10.33;;;-2.30;99.90;;;;;;5043619;28;20221;-60
2024/01/17 03:12:16;;;;;;;24.37;10.40;;;-2.20;99.90;;;;;;5045005;28;20774;-60
2024/01/17 03:14:44;;;;;;;28.90;11.17;;;-2.20;99.90;;;;;;5046013;28;20232;-60
2024/01/17 03:17:13;;;;;;;23.53;10.37;;;-2.20;99.90;;;;;;5041426;28;20630;-61
2024/01/17 03:19:44;;;;;;;27.63;11.03;;;-2.20;99.90;;;;;;5043692;28;20236;-60
2024/01/17 03:22:12;;;;;;;24.30;10.97;;;-2.20;99.90;;;;;;5041719;28;20213;-60
2024/01/17 03:24:41;;;;;;;21.87;10.23;;;-2.20;99.90;;;;;;5042913;28;20220;-60
2024/01/17 03:27:09;;;;;;;21.37;9.93;;;-2.20;99.90;;;;;;5046283;28;20229;-61
2024/01/17 03:29:37;;;;;;;22.20;10.07;;;-2.30;99.90;;;;;;5047064;28;20221;-60
2024/01/17 03:32:06;;;;;;;22.63;10.53;;;-2.30;99.90;;;;;;5045083;28;20250;-61
2024/01/17 03:34:35;;;;;;;20.33;9.63;;;-2.40;99.90;;;;;;5039053;28;20193;-60
2024/01/17 03:37:04;;;;;;;17.20;9.80;;;-2.40;99.90;;;;;;5045485;28;20225;-60
2024/01/17 03:39:35;;;;;;;19.83;8.97;;;-2.40;99.90;;;;;;5046186;28;20242;-60
2024/01/17 03:42:04;;;;;;;17.53;8.70;;;-2.40;99.90;;;;;;5040581;28;20226;-60
2024/01/17 03:44:32;;;;;;;22.47;9.33;;;-2.50;99.90;;;;;;5040249;28;20212;-60
2024/01/17 03:47:01;;;;;;;21.17;9.53;;;-2.50;99.90;;;;;;5048765;28;20339;-60
2024/01/17 03:49:29;;;;;;;19.60;9.00;;;-2.50;99.90;;;;;;5045575;28;20216;-60
2024/01/17 03:51:59;;;;;;;18.03;8.90;;;-2.50;99.90;;;;;;5043341;28;20225;-60
2024/01/17 03:54:27;;;;;;;17.67;9.10;;;-2.40;99.90;;;;;;5043469;28;20737;-60
2024/01/17 03:56:56;;;;;;;16.80;8.40;;;-2.50;99.90;;;;;;5044238;28;20220;-60
2024/01/17 03:59:25;;;;;;;15.83;9.03;;;-2.50;99.90;;;;;;5045793;28;20228;-60
2024/01/17 04:01:53;;;;;;;16.73;9.27;;;-2.50;99.90;;;;;;5045250;28;20283;-60
2024/01/17 04:04:21;;;;;;;16.97;8.80;;;-2.60;99.90;;;;;;5043386;28;20591;-61
2024/01/17 04:06:49;;;;;;;17.17;9.47;;;-2.60;99.90;;;;;;5042826;28;20225;-60
2024/01/17 04:09:19;;;;;;;16.57;9.27;;;-2.60;99.90;;;;;;5041848;28;20228;-61
2024/01/17 04:11:47;;;;;;;15.07;8.97;;;-2.60;99.90;;;;;;5042159;28;20229;-60
2024/01/17 04:14:16;;;;;;;17.93;9.40;;;-2.70;99.90;;;;;;5040374;28;20648;-61
2024/01/17 04:16:44;;;;;;;17.30;9.13;;;-2.60;99.90;;;;;;5045413;28;20202;-60
2024/01/17 04:19:12;;;;;;;20.00;9.73;;;-2.60;99.90;;;;;;5040766;28;20584;-60
2024/01/17 04:21:40;;;;;;;18.97;9.40;;;-2.60;99.90;;;;;;5045062;28;20224;-60
2024/01/17 04:24:08;;;;;;;19.10;9.83;;;-2.60;99.90;;;;;;5042068;28;20707;-60
2024/01/17 04:26:38;;;;;;;19.30;9.80;;;-2.60;99.90;;;;;;5039970;28;20609;-61
2024/01/17 04:29:06;;;;;;;20.27;10.03;;;-2.60;99.90;;;;;;5042250;28;20291;-60
2024/01/17 04:31:35;;;;;;;16.40;8.93;;;-2.60;99.90;;;;;;5047228;28;20200;-61
2024/01/17 04:34:03;;;;;;;17.40;8.97;;;-2.60;99.90;;;;;;5039725;28;20973;-60
2024/01/17 04:36:32;;;;;;;15.90;9.03;;;-2.60;99.90;;;;;;5043528;28;20224;-60
2024/01/17 04:39:01;;;;;;;18.27;8.37;;;-2.60;99.90;;;;;;5041803;28;20240;-60
2024/01/17 04:41:30;;;;;;;12.40;8.47;;;-2.60;99.90;;;;;;5040869;28;20278;-60
2024/01/17 04:44:00;;;;;;;15.00;8.03;;;-2.60;99.90;;;;;;5041708;28;20198;-60
2024/01/17 04:46:29;;;;;;;14.20;8.17;;;-2.60;99.90;;;;;;5041253;28;20557;-60
2024/01/17 04:48:59;;;;;;;14.70;8.80;;;-2.60;99.90;;;;;;5045276;28;20581;-60
2024/01/17 04:51:28;;;;;;;16.40;8.10;;;-2.50;99.90;;;;;;5041086;28;20217;-60
2024/01/17 04:53:58;;;;;;;14.57;8.33;;;-2.50;99.90;;;;;;5045144;28;20225;-60
2024/01/17 04:56:29;;;;;;;16.00;8.10;;;-2.50;99.90;;;;;;5041636;28;20225;-60
2024/01/17 04:58:57;;;;;;;20.23;8.67;;;-2.50;99.90;;;;;;5041721;28;20201;-60
2024/01/17 05:01:27;;;;;;;14.80;8.43;;;-2.40;99.90;;;;;;5039316;28;20235;-60
2024/01/17 05:03:55;;;;;;;16.53;8.33;;;-2.40;99.90;;;;;;5040463;28;20231;-60
2024/01/17 05:06:23;;;;;;;13.93;8.67;;;-2.30;99.90;;;;;;5041485;28;20217;-60
2024/01/17 05:08:52;;;;;;;13.87;8.40;;;-2.30;99.90;;;;;;5042281;28;20232;-60
2024/01/17 05:11:22;;;;;;;17.23;8.30;;;-2.30;99.90;;;;;;5043674;28;20232;-60
2024/01/17 05:13:50;;;;;;;17.27;8.27;;;-2.30;99.90;;;;;;5043630;28;20204;-60
2024/01/17 05:16:18;;;;;;;15.23;8.60;;;-2.20;99.90;;;;;;5038502;28;20232;-60
2024/01/17 05:18:48;;;;;;;14.80;8.40;;;-2.20;99.90;;;;;;5034577;28;20554;-60
2024/01/17 05:21:16;;;;;;;15.77;8.13;;;-2.10;99.90;;;;;;5039542;28;20221;-61
2024/01/17 05:23:45;;;;;;;19.30;8.73;;;-2.10;99.90;;;;;;5040832;28;20224;-60
2024/01/17 05:26:13;;;;;;;13.30;8.07;;;-2.10;99.90;;;;;;5045089;28;20695;-60
2024/01/17 05:28:42;;;;;;;15.87;8.83;;;-2.00;99.90;;;;;;5041234;28;20191;-60
2024/01/17 05:31:10;;;;;;;13.77;9.00;;;-2.00;99.90;;;;;;5043897;28;20221;-61
2024/01/17 05:33:39;;;;;;;14.30;8.90;;;-2.00;99.90;;;;;;5042841;28;20224;-60
2024/01/17 05:36:09;;;;;;;15.43;9.07;;;-2.00;99.90;;;;;;5037793;28;20274;-61
2024/01/17 05:38:37;;;;;;;21.00;10.37;;;-2.00;99.90;;;;;;5041721;28;20256;-60
2024/01/17 05:41:05;;;;;;;21.30;10.53;;;-2.00;99.90;;;;;;5042069;28;20219;-60
2024/01/17 05:43:33;;;;;;;19.67;10.13;;;-2.00;99.90;;;;;;5046469;28;20196;-60
2024/01/17 05:46:02;;;;;;;18.63;10.10;;;-2.00;99.90;;;;;;5048442;28;20572;-60
2024/01/17 05:48:30;;;;;;;14.00;9.23;;;-2.00;99.90;;;;;;5046846;28;20223;-60
2024/01/17 05:50:58;;;;;;;16.37;9.10;;;-1.90;99.90;;;;;;5045592;28;20311;-60
2024/01/17 05:53:28;;;;;;;17.93;8.70;;;-1.90;99.90;;;;;;5046817;28;20228;-60
2024/01/17 05:55:56;;;;;;;16.93;9.43;;;-1.90;99.90;;;;;;5046821;28;20254;-60
2024/01/17 05:58:25;;;;;;;14.97;8.60;;;-1.90;99.90;;;;;;5046571;28;20212;-60
2024/01/17 06:00:54;;;;;;;13.43;8.60;;;-1.80;99.90;;;;;;5039234;28;20859;-60
2024/01/17 06:03:23;;;;;;;17.90;8.27;;;-1.80;99.90;;;;;;5046804;28;20216;-60
2024/01/17 06:05:52;;;;;;;13.20;8.07;;;-1.80;99.90;;;;;;5044119;28;20886;-60
2024/01/17 06:08:21;;;;;;;12.53;8.60;;;-1.80;99.90;;;;;;5044589;28;20502;-60
2024/01/17 06:10:50;;;;;;;15.07;8.13;;;-1.80;99.90;;;;;;5044483;28;20194;-60
2024/01/17 06:13:18;;;;;;;16.60;8.70;;;-1.80;99.90;;;;;;5043812;28;20675;-60
2024/01/17 06:15:47;;;;;;;15.70;8.30;;;-1.80;99.90;;;;;;5047597;28;20311;-60
2024/01/17 06:18:16;;;;;;;15.60;8.23;;;-1.80;99.90;;;;;;5048116;28;20221;-60
2024/01/17 06:20:44;;;;;;;14.43;8.60;;;-1.70;99.90;;;;;;5047588;28;20737;-60
2024/01/17 06:23:12;;;;;;;15.50;8.73;;;-1.70;99.90;;;;;;5045750;28;20529;-60
2024/01/17 06:25:41;;;;;;;16.37;8.57;;;-1.70;99.90;;;;;;5044154;28;20747;-60
2024/01/17 06:28:11;;;;;;;15.67;8.50;;;-1.80;99.90;;;;;;5048746;28;20652;-60
2024/01/17 06:30:39;;;;;;;12.40;8.97;;;-1.80;99.90;;;;;;5045938;28;20224;-60
2024/01/17 06:33:07;;;;;;;12.53;7.53;;;-1.70;99.90;;;;;;5043304;28;20270;-61
2024/01/17 06:35:36;;;;;;;13.73;7.83;;;-1.70;99.90;;;;;;5045713;28;20220;-61
2024/01/17 06:38:04;;;;;;;16.00;7.97;;;-1.70;99.90;;;;;;5046578;28;20306;-61
2024/01/17 06:40:32;;;;;;;13.60;7.40;;;-1.70;99.90;;;;;;5045363;28;20208;-61
2024/01/17 06:43:01;;;;;;;14.00;8.03;;;-1.70;99.90;;;;;;5041681;28;20579;-61
2024/01/17 06:45:31;;;;;;;14.00;7.70;;;-1.70;99.90;;;;;;5045003;28;20678;-61
2024/01/17 06:48:02;;;;;;;12.70;7.87;;;-1.70;99.90;;;;;;5046758;28;20718;-61
2024/01/17 06:50:30;;;;;;;15.57;8.20;;;-1.70;99.90;;;;;;5042561;28;20266;-61
2024/01/17 06:52:58;;;;;;;18.03;8.23;;;-1.70;97.90;;;;;;5044039;28;20193;-61
2024/01/17 06:55:26;;;;;;;10.27;6.93;;;-1.70;93.30;;;;;;5040785;28;20219;-61
2024/01/17 06:57:55;;;;;;;10.73;7.23;;;-1.60;91.80;;;;;;5043503;28;20225;-61
2024/01/17 07:00:24;;;;;;;12.70;7.60;;;-1.60;91.10;;;;;;5042327;28;20251;-61
2024/01/17 07:02:54;;;;;;;13.30;7.70;;;-1.60;91.50;;;;;;5046932;28;20616;-61
2024/01/17 07:05:23;;;;;;;12.37;7.90;;;-1.60;90.80;;;;;;5044787;28;20825;-61
2024/01/17 07:07:51;;;;;;;13.07;7.77;;;-1.60;91.50;;;;;;5044360;28;20205;-61
2024/01/17 07:10:20;;;;;;;13.50;8.30;;;-1.50;95.40;;;;;;5044349;28;20282;-61
2024/01/17 07:12:48;;;;;;;16.90;8.33;;;-1.50;97.40;;;;;;5047098;28;20448;-61
2024/01/17 07:15:16;;;;;;;12.80;7.77;;;-1.50;98.10;;;;;;5044860;28;20232;-61
2024/01/17 07:17:44;;;;;;;16.17;8.53;;;-1.50;96.50;;;;;;5045897;28;20220;-61
2024/01/17 07:20:15;;;;;;;17.00;8.30;;;-1.50;94.00;;;;;;5047919;28;20640;-61
2024/01/17 07:22:44;;;;;;;22.23;9.70;;;-1.50;94.50;;;;;;5038974;28;20230;-61
2024/01/17 07:25:13;;;;;;;15.50;8.80;;;-1.50;96.10;;;;;;5041470;28;20227;-60
2024/01/17 07:27:43;;;;;;;17.10;8.67;;;-1.60;98.50;;;;;;5042805;28;20230;-61
2024/01/17 07:30:12;;;;;;;17.90;9.27;;;-1.50;99.80;;;;;;5044231;28;20216;-60
2024/01/17 07:32:41;;;;;;;18.10;9.13;;;-1.60;99.90;;;;;;5045358;28;20728;-61
2024/01/17 07:35:10;;;;;;;17.23;10.10;;;-1.60;99.90;;;;;;5041441;28;20201;-60
2024/01/17 07:37:39;;;;;;;13.87;8.73;;;-1.60;99.90;;;;;;5043778;28;20185;-61
2024/01/17 07:40:10;;;;;;;16.50;9.30;;;-1.60;99.90;;;;;;5042652;28;20216;-61
2024/01/17 07:42:38;;;;;;;20.10;9.67;;;-1.50;99.90;;;;;;5044796;28;20216;-61
2024/01/17 07:45:07;;;;;;;19.00;9.60;;;-1.50;99.90;;;;;;5046663;28;20233;-60
2024/01/17 07:47:35;;;;;;;14.00;8.77;;;-1.50;99.90;;;;;;5040853;28;20229;-61
2024/01/17 07:50:04;;;;;;;14.03;9.30;;;-1.50;99.90;;;;;;5041305;28;21379;-61
2024/01/17 07:52:33;;;;;;;14.87;8.73;;;-1.40;99.90;;;;;;5045046;28;20185;-61
2024/01/17 07:55:03;;;;;;;16.23;8.93;;;-1.40;99.90;;;;;;5040290;28;20582;-61
2024/01/17 07:57:35;;;;;;;15.93;8.83;;;-1.30;99.90;;;;;;5041961;28;20643;-59
2024/01/17 08:00:04;;;;;;;15.60;8.80;;;-1.30;99.90;;;;;;5042271;28;20227;-59
2024/01/17 08:02:33;;;;;;;19.10;9.17;;;-1.30;99.90;;;;;;5043111;28;20224;-61
2024/01/17 08:05:01;;;;;;;15.43;9.23;;;-1.30;99.90;;;;;;5044116;28;20685;-59
2024/01/17 08:07:29;;;;;;;15.93;9.87;;;-1.30;99.90;;;;;;5045361;28;20208;-60
2024/01/17 08:09:58;;;;;;;18.73;9.70;;;-1.20;99.90;;;;;;5043274;28;20221;-60
2024/01/17 08:12:31;;;;;;;17.00;10.03;;;-1.20;99.90;;;;;;5039846;28;20217;-60
2024/01/17 08:14:59;;;;;;;24.03;10.10;;;-1.10;99.90;;;;;;5041800;28;20224;-60
2024/01/17 08:17:27;;;;;;;20.30;10.33;;;-1.20;99.90;;;;;;5041936;28;20224;-60
2024/01/17 08:19:59;;;;;;;15.93;10.13;;;-1.30;99.90;;;;;;5042401;28;20208;-60
2024/01/17 08:22:27;;;;;;;21.43;10.73;;;-1.30;99.90;;;;;;5041651;28;20228;-60
2024/01/17 08:24:56;;;;;;;18.60;10.23;;;-1.20;99.90;;;;;;5042894;28;20786;-61
2024/01/17 08:27:24;;;;;;;20.73;10.40;;;-1.30;99.90;;;;;;5039660;28;20307;-60
2024/01/17 08:29:53;;;;;;;18.57;11.23;;;-1.40;99.90;;;;;;5040924;28;20223;-60
2024/01/17 08:32:22;;;;;;;23.00;11.13;;;-1.40;99.90;;;;;;5043831;28;20232;-60
2024/01/17 08:34:50;;;;;;;17.77;10.70;;;-1.30;99.90;;;;;;5043290;28;20224;-60
2024/01/17 08:37:19;;;;;;;19.60;11.00;;;-1.40;99.90;;;;;;5041511;28;20214;-60
2024/01/17 08:39:47;;;;;;;20.03;10.63;;;-1.50;99.90;;;;;;5042253;28;20228;-60
2024/01/17 08:42:15;;;;;;;17.77;10.53;;;-1.50;99.90;;;;;;5043944;28;20247;-60
2024/01/17 08:44:44;;;;;;;19.97;10.80;;;-1.40;99.90;;;;;;5042375;28;20224;-60
2024/01/17 08:47:13;;;;;;;19.60;10.60;;;-1.30;99.90;;;;;;5044485;28;20220;-60
2024/01/17 08:49:42;;;;;;;19.53;10.57;;;-1.30;99.90;;;;;;5059702;28;20200;-60
2024/01/17 08:52:10;;;;;;;18.67;10.23;;;-1.20;99.90;;;;;;5044168;28;20220;-60
2024/01/17 08:54:38;;;;;;;17.57;10.43;;;-1.20;99.90;;;;;;5039717;28;20221;-60
2024/01/17 08:57:06;;;;;;;21.57;10.43;;;-1.20;99.90;;;;;;5032027;28;20213;-60
2024/01/17 08:59:35;;;;;;;17.37;9.60;;;-1.20;99.90;;;;;;5027437;28;20248;-61
2024/01/17 09:02:04;;;;;;;19.20;10.60;;;-1.20;99.90;;;;;;5043228;28;20314;-60
2024/01/17 09:04:34;;;;;;;19.53;9.90;;;-1.20;99.90;;;;;;5043506;28;20200;-61
2024/01/17 09:07:02;;;;;;;19.50;10.30;;;-1.20;99.90;;;;;;5043508;28;20266;-61
2024/01/17 09:09:30;;;;;;;19.07;10.77;;;-1.20;99.90;;;;;;5044877;28;20587;-61
2024/01/17 09:11:59;;;;;;;20.47;10.60;;;-1.20;99.90;;;;;;5039554;28;20315;-60
2024/01/17 09:14:27;;;;;;;24.17;10.50;;;-1.30;99.90;;;;;;5042821;28;20224;-60
2024/01/17 09:16:56;;;;;;;19.70;10.47;;;-1.30;99.90;;;;;;5047092;28;20197;-61
2024/01/17 09:19:24;;;;;;;21.70;10.80;;;-1.20;99.90;;;;;;5048869;28;20222;-61
2024/01/17 09:21:54;;;;;;;16.50;10.33;;;-1.20;99.90;;;;;;5045012;28;20703;-61
2024/01/17 09:24:22;;;;;;;21.40;10.87;;;-1.10;99.90;;;;;;5056731;28;20250;-60
2024/01/17 09:26:52;;;;;;;18.77;10.83;;;-1.20;99.90;;;;;;5045914;28;20233;-61
2024/01/17 09:29:21;;;;;;;20.80;11.00;;;-1.20;99.90;;;;;;5060439;28;20200;-61
2024/01/17 09:31:50;;;;;;;20.27;10.40;;;-1.20;99.90;;;;;;5048072;28;20646;-61
2024/01/17 09:34:18;;;;;;;20.57;11.07;;;-1.10;99.90;;;;;;5043882;28;20220;-60
2024/01/17 09:36:47;;;;;;;22.03;11.77;;;-1.10;99.90;;;;;;5045526;28;20737;-61
2024/01/17 09:39:17;;;;;;;21.40;11.00;;;-1.10;99.90;;;;;;5045478;28;20274;-61
2024/01/17 09:41:46;;;;;;;19.73;11.03;;;-1.10;99.90;;;;;;5042495;28;20229;-61
2024/01/17 09:44:14;;;;;;;20.10;10.53;;;-1.10;99.90;;;;;;5044863;28;20284;-61
2024/01/17 09:46:45;;;;;;;18.93;10.63;;;-1.00;99.90;;;;;;5049031;28;20215;-60
2024/01/17 09:49:13;;;;;;;21.00;11.17;;;-1.00;99.90;;;;;;5042886;28;20232;-61
2024/01/17 09:51:42;;;;;;;16.97;10.20;;;-1.00;99.90;;;;;;5043114;28;20209;-60
2024/01/17 09:54:11;;;;;;;21.30;10.63;;;-1.00;99.90;;;;;;5047081;28;20779;-61
2024/01/17 09:56:47;;;;;;;20.50;10.73;;;-0.90;99.90;;;;;;5043207;28;20228;-61
2024/01/17 09:59:17;;;;;;;21.77;10.37;;;-0.80;99.90;;;;;;5045027;28;20844;-61
2024/01/17 10:01:46;;;;;;;25.17;11.80;;;-0.80;99.90;;;;;;5044923;28;20216;-60
2024/01/17 10:04:14;;;;;;;25.07;11.80;;;-0.80;99.90;;;;;;5045232;28;20259;-60
2024/01/17 10:06:44;;;;;;;24.13;10.87;;;-0.80;99.90;;;;;;5047712;28;20319;-61
2024/01/17 10:09:14;;;;;;;21.93;11.47;;;-0.80;99.90;;;;;;5044882;28;20217;-60
2024/01/17 10:11:44;;;;;;;25.77;10.60;;;-0.80;99.90;;;;;;5043345;28;20225;-60
2024/01/17 10:14:13;;;;;;;18.13;10.47;;;-0.80;99.90;;;;;;5059345;28;20920;-61
2024/01/17 10:16:42;;;;;;;22.00;10.67;;;-0.90;98.90;;;;;;5048757;28;20667;-61
2024/01/17 10:19:11;;;;;;;18.37;10.77;;;-0.90;99.90;;;;;;5046863;28;20298;-60
2024/01/17 10:21:39;;;;;;;18.57;10.47;;;-0.80;99.90;;;;;;5043559;28;20239;-60
2024/01/17 10:24:08;;;;;;;16.13;10.67;;;-0.70;99.90;;;;;;5044902;28;20224;-60
2024/01/17 10:26:36;;;;;;;23.50;11.23;;;-0.80;99.90;;;;;;5041650;28;20282;-61
2024/01/17 10:29:06;;;;;;;18.80;11.20;;;-0.80;99.10;;;;;;5044242;28;20196;-60
2024/01/17 10:31:34;;;;;;;20.20;10.73;;;-0.80;98.90;;;;;;5046466;28;20197;-60
2024/01/17 10:34:02;;;;;;;23.23;10.70;;;-0.70;98.50;;;;;;5047271;28;20324;-61
2024/01/17 10:36:31;;;;;;;18.77;10.83;;;-0.70;97.50;;;;;;5044047;28;20786;-60
2024/01/17 10:39:03;;;;;;;19.40;10.90;;;-0.70;98.30;;;;;;5042384;28;20213;-60
2024/01/17 10:41:32;;;;;;;19.07;11.17;;;-0.80;97.60;;;;;;5038203;28;20274;-60
2024/01/17 10:44:03;;;;;;;26.47;11.40;;;-0.80;99.90;;;;;;5040624;28;20204;-60
2024/01/17 10:46:33;;;;;;;23.53;11.73;;;-0.80;99.90;;;;;;5045284;28;20208;-61
2024/01/17 10:49:02;;;;;;;21.70;10.73;;;-0.80;99.90;;;;;;5041961;28;20239;-61
2024/01/17 10:51:36;;;;;;;26.17;11.40;;;-0.80;99.90;;;;;;5042611;28;20240;-60
2024/01/17 10:54:08;;;;;;;22.93;10.93;;;-0.90;99.90;;;;;;5045847;28;20216;-60
2024/01/17 10:56:41;;;;;;;21.63;11.80;;;-0.90;99.90;;;;;;5037491;28;20234;-60
2024/01/17 10:59:13;;;;;;;21.37;12.17;;;-0.90;99.90;;;;;;5043647;28;20221;-61
2024/01/17 11:01:46;;;;;;;20.90;11.20;;;-0.90;99.90;;;;;;5027950;28;20213;-61
2024/01/17 11:04:19;;;;;;;27.80;13.00;;;-1.00;99.90;;;;;;5043503;28;20235;-61
2024/01/17 11:06:48;;;;;;;25.80;12.30;;;-1.00;99.90;;;;;;5044494;28;20240;-61
2024/01/17 11:09:18;;;;;;;22.90;11.90;;;-1.00;99.90;;;;;;5043888;28;20247;-61
2024/01/17 11:11:47;;;;;;;26.80;12.60;;;-1.00;99.90;;;;;;5047528;28;20252;-60
2024/01/17 11:14:18;;;;;;;22.27;12.30;;;-0.90;99.90;;;;;;5039838;28;20204;-61
2024/01/17 11:16:50;;;;;;;26.23;13.03;;;-0.80;99.90;;;;;;5059497;28;20196;-60
2024/01/17 11:19:21;;;;;;;25.97;13.57;;;-0.80;99.90;;;;;;5023612;28;20256;-60
2024/01/17 11:21:50;;;;;;;25.83;13.03;;;-0.80;99.90;;;;;;5034719;28;20271;-60
2024/01/17 11:24:28;;;;;;;25.67;13.80;;;-0.80;99.90;;;;;;5022627;28;20692;-60
2024/01/17 11:27:06;;;;;;;30.73;14.30;;;-0.70;99.90;;;;;;5020111;28;20225;-60
2024/01/17 11:29:45;;;;;;;25.67;13.47;;;-0.70;99.90;;;;;;5021612;28;20233;-60
2024/01/17 11:32:22;;;;;;;34.03;14.47;;;-0.60;99.90;;;;;;5026195;28;20182;-60
2024/01/17 11:34:51;;;;;;;26.43;13.73;;;-0.60;99.90;;;;;;5041392;28;20193;-60
2024/01/17 11:37:33;;;;;;;29.30;16.07;;;-0.40;99.90;;;;;;5043683;28;20233;-60
2024/01/17 11:40:04;;;;;;;31.53;15.90;;;-0.30;99.90;;;;;;5046213;28;20321;-60
2024/01/17 11:42:34;;;;;;;30.53;14.10;;;-0.30;99.90;;;;;;5045750;28;20220;-60
2024/01/17 11:45:04;;;;;;;27.30;14.10;;;-0.30;99.90;;;;;;5044718;28;20274;-60
2024/01/17 11:47:52;;;;;;;28.30;14.47;;;-0.30;99.90;;;;;;5042288;28;20225;-60
2024/01/17 11:50:23;;;;;;;27.63;14.60;;;-0.30;99.90;;;;;;5041818;28;20228;-60
2024/01/17 11:52:53;;;;;;;27.37;14.27;;;-0.30;99.90;;;;;;5048114;28;20212;-60
2024/01/17 11:55:30;;;;;;;29.67;14.57;;;-0.30;99.90;;;;;;5045351;28;20216;-60
2024/01/17 11:58:01;;;;;;;25.63;13.93;;;-0.30;99.90;;;;;;5042489;28;20220;-60
2024/01/17 12:00:29;;;;;;;27.27;14.50;;;-0.30;99.90;;;;;;5043789;28;20221;-60
2024/01/17 12:03:00;;;;;;;26.67;14.43;;;-0.30;99.90;;;;;;5042444;28;20556;-60
2024/01/17 12:05:29;;;;;;;25.60;14.60;;;-0.30;99.90;;;;;;5043947;28;20577;-60
2024/01/17 12:07:58;;;;;;;27.87;14.90;;;-0.30;99.90;;;;;;5041316;28;20201;-60
2024/01/17 12:10:27;;;;;;;29.13;14.90;;;-0.40;99.90;;;;;;5039098;28;20683;-60
2024/01/17 12:12:58;;;;;;;31.90;14.97;;;-0.50;99.90;;;;;;5041679;28;20216;-60
2024/01/17 12:15:26;;;;;;;27.90;15.10;;;-0.60;99.90;;;;;;5040157;28;20714;-60
2024/01/17 12:17:55;;;;;;;30.77;15.43;;;-0.70;99.90;;;;;;5040533;28;20363;-60
2024/01/17 12:20:25;;;;;;;35.80;15.63;;;-0.60;99.90;;;;;;5039165;28;20230;-60
2024/01/17 12:22:55;;;;;;;28.70;15.40;;;-0.60;99.90;;;;;;5037961;28;20213;-60
2024/01/17 12:25:23;;;;;;;24.63;14.40;;;-0.60;99.90;;;;;;5035928;28;20229;-60
2024/01/17 12:27:55;;;;;;;29.93;15.07;;;-0.60;99.90;;;;;;5040317;28;20274;-60
2024/01/17 12:30:23;;;;;;;29.27;15.83;;;-0.60;99.90;;;;;;5040254;28;20295;-60
2024/01/17 12:32:52;;;;;;;28.40;14.93;;;-0.60;99.90;;;;;;5044357;28;20212;-60
2024/01/17 12:35:21;;;;;;;29.57;15.87;;;-0.50;99.90;;;;;;5042570;28;21964;-59
2024/01/17 12:37:50;;;;;;;34.23;15.10;;;-0.50;99.90;;;;;;5043436;28;20208;-60
2024/01/17 12:40:19;;;;;;;29.73;15.00;;;-0.50;99.90;;;;;;5045133;28;20224;-59
2024/01/17 12:42:49;;;;;;;29.03;15.27;;;-0.50;99.90;;;;;;5043465;28;20724;-60
2024/01/17 12:45:18;;;;;;;33.17;17.03;;;-0.50;99.90;;;;;;5042549;28;20247;-60
2024/01/17 12:47:49;;;;;;;33.03;15.90;;;-0.50;99.90;;;;;;5042747;28;20312;-60
2024/01/17 12:50:18;;;;;;;31.30;15.87;;;-0.50;99.90;;;;;;5045744;28;20535;-60
2024/01/17 12:52:47;;;;;;;33.30;16.67;;;-0.40;99.90;;;;;;5045907;28;20197;-60
2024/01/17 12:55:21;;;;;;;33.10;15.70;;;-0.40;99.90;;;;;;5044133;28;20699;-60
2024/01/17 12:57:50;;;;;;;25.87;15.53;;;-0.40;99.90;;;;;;5043415;28;20224;-59
2024/01/17 13:00:23;;;;;;;30.70;16.00;;;-0.40;99.90;;;;;;5043931;28;20695;-59
2024/01/17 13:02:52;;;;;;;32.57;16.73;;;-0.40;99.90;;;;;;5043734;28;20745;-60